Terminal Aerodrome Forecast
Issued by NWS

Home | Current Version | Previous Version | Text Only | Print | Product List | Glossary On
Versions: 1 2 3 4 5 6 7 8 9 10 11 12 13 14 15 16 17 18 19
000
FTUS43 KDLH 291500 AAC
TAFHIB
TAF AMD
KHIB 291503Z 2915/3012 24004KT 3/4SM -SN BR BKN005 OVC008
     FM291600 26004KT 3SM -RA BR OVC006
     FM291800 33018G32KT P6SM BKN012
     FM300000 30015KT P6SM BKN035=

USA.gov is the U.S. government's official web portal to all federal, state and local government web resources and services.